sensor_id;sensor_type;location;lat;lon;timestamp;P1;durP1;ratioP1;P2;durP2;ratioP2
47958;SDS011;33718;50.910;-1.514;2023-06-14T00:01:11;6.57;;;5.90;;
47958;SDS011;33718;50.910;-1.514;2023-06-14T00:03:29;6.15;;;5.55;;
47958;SDS011;33718;50.910;-1.514;2023-06-14T00:05:45;6.03;;;5.53;;
47958;SDS011;33718;50.910;-1.514;2023-06-14T00:08:11;5.82;;;5.30;;
47958;SDS011;33718;50.910;-1.514;2023-06-14T00:10:23;7.28;;;5.88;;
47958;SDS011;33718;50.910;-1.514;2023-06-14T00:12:37;11.68;;;5.88;;
47958;SDS011;33718;50.910;-1.514;2023-06-14T00:14:51;9.20;;;5.45;;
47958;SDS011;33718;50.910;-1.514;2023-06-14T00:20:02;7.88;;;5.82;;
47958;SDS011;33718;50.910;-1.514;2023-06-14T00:22:17;6.30;;;5.68;;
47958;SDS011;33718;50.910;-1.514;2023-06-14T00:24:41;7.05;;;5.60;;
47958;SDS011;33718;50.910;-1.514;2023-06-14T00:27:05;9.80;;;5.60;;
47958;SDS011;33718;50.910;-1.514;2023-06-14T00:29:35;9.68;;;7.65;;
47958;SDS011;33718;50.910;-1.514;2023-06-14T00:31:55;10.55;;;5.85;;
47958;SDS011;33718;50.910;-1.514;2023-06-14T00:34:11;5.55;;;5.05;;
47958;SDS011;33718;50.910;-1.514;2023-06-14T00:38:19;9.43;;;5.80;;
47958;SDS011;33718;50.910;-1.514;2023-06-14T00:40:25;7.15;;;6.30;;
47958;SDS011;33718;50.910;-1.514;2023-06-14T00:42:30;12.45;;;5.97;;
47958;SDS011;33718;50.910;-1.514;2023-06-14T00:44:31;8.32;;;5.80;;
47958;SDS011;33718;50.910;-1.514;2023-06-14T00:46:36;6.40;;;5.45;;
47958;SDS011;33718;50.910;-1.514;2023-06-14T00:48:40;10.48;;;6.28;;
47958;SDS011;33718;50.910;-1.514;2023-06-14T00:50:46;6.80;;;5.63;;
47958;SDS011;33718;50.910;-1.514;2023-06-14T00:54:54;7.50;;;5.75;;
47958;SDS011;33718;50.910;-1.514;2023-06-14T00:56:59;7.07;;;6.25;;
47958;SDS011;33718;50.910;-1.514;2023-06-14T00:59:03;8.93;;;6.45;;
47958;SDS011;33718;50.910;-1.514;2023-06-14T01:01:05;6.65;;;5.10;;
47958;SDS011;33718;50.910;-1.514;2023-06-14T01:03:09;7.35;;;5.47;;
47958;SDS011;33718;50.910;-1.514;2023-06-14T01:05:17;11.18;;;6.10;;
47958;SDS011;33718;50.910;-1.514;2023-06-14T01:09:42;10.20;;;6.00;;
47958;SDS011;33718;50.910;-1.514;2023-06-14T01:11:50;13.52;;;6.22;;
47958;SDS011;33718;50.910;-1.514;2023-06-14T01:13:52;11.35;;;9.23;;
47958;SDS011;33718;50.910;-1.514;2023-06-14T01:15:57;11.50;;;9.90;;
47958;SDS011;33718;50.910;-1.514;2023-06-14T01:18:18;10.05;;;6.68;;
47958;SDS011;33718;50.910;-1.514;2023-06-14T01:20:21;6.68;;;5.75;;
47958;SDS011;33718;50.910;-1.514;2023-06-14T01:22:24;8.00;;;6.20;;
47958;SDS011;33718;50.910;-1.514;2023-06-14T01:24:27;7.45;;;5.93;;
47958;SDS011;33718;50.910;-1.514;2023-06-14T01:26:33;9.20;;;5.55;;
47958;SDS011;33718;50.910;-1.514;2023-06-14T01:28:35;6.57;;;5.57;;
47958;SDS011;33718;50.910;-1.514;2023-06-14T01:30:43;7.25;;;5.97;;
47958;SDS011;33718;50.910;-1.514;2023-06-14T01:32:54;9.90;;;6.35;;
47958;SDS011;33718;50.910;-1.514;2023-06-14T01:34:57;8.05;;;5.63;;
47958;SDS011;33718;50.910;-1.514;2023-06-14T01:39:49;6.15;;;5.55;;
47958;SDS011;33718;50.910;-1.514;2023-06-14T01:41:51;7.97;;;5.88;;
47958;SDS011;33718;50.910;-1.514;2023-06-14T01:43:55;8.52;;;6.47;;
47958;SDS011;33718;50.910;-1.514;2023-06-14T01:45:57;6.90;;;5.75;;
47958;SDS011;33718;50.910;-1.514;2023-06-14T01:48:00;8.95;;;6.03;;
47958;SDS011;33718;50.910;-1.514;2023-06-14T01:50:21;7.25;;;5.82;;
47958;SDS011;33718;50.910;-1.514;2023-06-14T01:52:25;9.63;;;5.60;;
47958;SDS011;33718;50.910;-1.514;2023-06-14T01:54:30;6.82;;;6.13;;
47958;SDS011;33718;50.910;-1.514;2023-06-14T01:56:32;7.95;;;6.10;;
47958;SDS011;33718;50.910;-1.514;2023-06-14T01:58:36;7.68;;;5.82;;
47958;SDS011;33718;50.910;-1.514;2023-06-14T02:00:41;7.50;;;5.80;;
47958;SDS011;33718;50.910;-1.514;2023-06-14T02:02:47;9.68;;;6.47;;
47958;SDS011;33718;50.910;-1.514;2023-06-14T02:04:52;7.25;;;6.57;;
47958;SDS011;33718;50.910;-1.514;2023-06-14T02:06:56;8.13;;;6.70;;
47958;SDS011;33718;50.910;-1.514;2023-06-14T02:08:58;6.65;;;5.90;;
47958;SDS011;33718;50.910;-1.514;2023-06-14T02:10:59;7.45;;;6.15;;
47958;SDS011;33718;50.910;-1.514;2023-06-14T02:13:01;8.32;;;6.95;;
47958;SDS011;33718;50.910;-1.514;2023-06-14T02:15:03;8.45;;;5.90;;
47958;SDS011;33718;50.910;-1.514;2023-06-14T02:17:11;7.30;;;6.53;;
47958;SDS011;33718;50.910;-1.514;2023-06-14T02:19:31;7.70;;;6.68;;
47958;SDS011;33718;50.910;-1.514;2023-06-14T02:21:39;6.43;;;5.82;;
47958;SDS011;33718;50.910;-1.514;2023-06-14T02:23:41;7.60;;;6.63;;
47958;SDS011;33718;50.910;-1.514;2023-06-14T02:25:43;7.53;;;6.18;;
47958;SDS011;33718;50.910;-1.514;2023-06-14T02:27:49;8.05;;;6.30;;
47958;SDS011;33718;50.910;-1.514;2023-06-14T02:29:51;8.05;;;6.47;;
47958;SDS011;33718;50.910;-1.514;2023-06-14T02:31:58;7.60;;;6.63;;
47958;SDS011;33718;50.910;-1.514;2023-06-14T02:34:18;9.95;;;7.47;;
47958;SDS011;33718;50.910;-1.514;2023-06-14T02:36:27;7.80;;;6.43;;
47958;SDS011;33718;50.910;-1.514;2023-06-14T02:38:30;9.93;;;7.28;;
47958;SDS011;33718;50.910;-1.514;2023-06-14T02:40:51;13.18;;;7.45;;
47958;SDS011;33718;50.910;-1.514;2023-06-14T02:42:52;8.50;;;7.35;;
47958;SDS011;33718;50.910;-1.514;2023-06-14T02:44:54;9.18;;;7.05;;
47958;SDS011;33718;50.910;-1.514;2023-06-14T02:46:55;8.52;;;7.63;;
47958;SDS011;33718;50.910;-1.514;2023-06-14T02:48:57;8.38;;;6.43;;
47958;SDS011;33718;50.910;-1.514;2023-06-14T02:50:59;8.48;;;6.50;;
47958;SDS011;33718;50.910;-1.514;2023-06-14T02:53:06;8.05;;;6.50;;
47958;SDS011;33718;50.910;-1.514;2023-06-14T02:55:14;8.95;;;6.78;;
47958;SDS011;33718;50.910;-1.514;2023-06-14T02:57:22;8.88;;;6.13;;
47958;SDS011;33718;50.910;-1.514;2023-06-14T02:59:31;9.48;;;7.28;;
47958;SDS011;33718;50.910;-1.514;2023-06-14T03:01:41;6.85;;;6.15;;
47958;SDS011;33718;50.910;-1.514;2023-06-14T03:03:58;8.73;;;6.65;;
47958;SDS011;33718;50.910;-1.514;2023-06-14T03:06:08;8.68;;;6.97;;
47958;SDS011;33718;50.910;-1.514;2023-06-14T03:10:40;9.18;;;7.22;;
47958;SDS011;33718;50.910;-1.514;2023-06-14T03:12:53;10.20;;;7.47;;
47958;SDS011;33718;50.910;-1.514;2023-06-14T03:15:18;8.57;;;7.05;;
47958;SDS011;33718;50.910;-1.514;2023-06-14T03:17:39;8.75;;;7.22;;
47958;SDS011;33718;50.910;-1.514;2023-06-14T03:19:47;8.63;;;7.03;;
47958;SDS011;33718;50.910;-1.514;2023-06-14T03:21:58;8.80;;;7.10;;
47958;SDS011;33718;50.910;-1.514;2023-06-14T03:24:09;12.52;;;8.82;;
47958;SDS011;33718;50.910;-1.514;2023-06-14T03:26:28;10.32;;;6.93;;
47958;SDS011;33718;50.910;-1.514;2023-06-14T03:28:40;9.35;;;7.72;;
47958;SDS011;33718;50.910;-1.514;2023-06-14T03:30:50;14.02;;;7.63;;
47958;SDS011;33718;50.910;-1.514;2023-06-14T03:33:01;7.57;;;6.80;;
47958;SDS011;33718;50.910;-1.514;2023-06-14T03:35:20;10.05;;;7.70;;
47958;SDS011;33718;50.910;-1.514;2023-06-14T03:37:28;12.10;;;8.00;;
47958;SDS011;33718;50.910;-1.514;2023-06-14T03:39:49;9.57;;;7.57;;
47958;SDS011;33718;50.910;-1.514;2023-06-14T03:41:53;11.15;;;7.88;;
47958;SDS011;33718;50.910;-1.514;2023-06-14T03:44:15;8.52;;;7.72;;
47958;SDS011;33718;50.910;-1.514;2023-06-14T03:46:19;9.95;;;6.82;;
47958;SDS011;33718;50.910;-1.514;2023-06-14T03:48:41;10.05;;;7.22;;
47958;SDS011;33718;50.910;-1.514;2023-06-14T03:51:01;8.13;;;7.20;;
47958;SDS011;33718;50.910;-1.514;2023-06-14T03:53:03;8.77;;;6.68;;
47958;SDS011;33718;50.910;-1.514;2023-06-14T03:55:08;12.93;;;6.63;;
47958;SDS011;33718;50.910;-1.514;2023-06-14T03:57:15;17.65;;;8.10;;
47958;SDS011;33718;50.910;-1.514;2023-06-14T03:59:20;8.43;;;6.47;;
47958;SDS011;33718;50.910;-1.514;2023-06-14T04:01:25;8.02;;;7.32;;
47958;SDS011;33718;50.910;-1.514;2023-06-14T04:03:31;10.15;;;7.95;;
47958;SDS011;33718;50.910;-1.514;2023-06-14T04:05:36;8.93;;;7.57;;
47958;SDS011;33718;50.910;-1.514;2023-06-14T04:07:41;7.88;;;6.72;;
47958;SDS011;33718;50.910;-1.514;2023-06-14T04:09:49;12.02;;;6.93;;
47958;SDS011;33718;50.910;-1.514;2023-06-14T04:11:53;8.10;;;6.75;;
47958;SDS011;33718;50.910;-1.514;2023-06-14T04:13:54;11.27;;;6.90;;
47958;SDS011;33718;50.910;-1.514;2023-06-14T04:15:57;9.85;;;5.63;;
47958;SDS011;33718;50.910;-1.514;2023-06-14T04:18:02;7.60;;;6.50;;
47958;SDS011;33718;50.910;-1.514;2023-06-14T04:20:03;9.95;;;5.55;;
47958;SDS011;33718;50.910;-1.514;2023-06-14T04:22:10;7.90;;;6.68;;
47958;SDS011;33718;50.910;-1.514;2023-06-14T04:24:15;6.60;;;5.60;;
47958;SDS011;33718;50.910;-1.514;2023-06-14T04:26:17;7.57;;;6.00;;
47958;SDS011;33718;50.910;-1.514;2023-06-14T04:30:46;6.63;;;5.38;;
47958;SDS011;33718;50.910;-1.514;2023-06-14T04:33:07;10.88;;;5.53;;
47958;SDS011;33718;50.910;-1.514;2023-06-14T04:35:12;11.48;;;5.22;;
47958;SDS011;33718;50.910;-1.514;2023-06-14T04:37:17;6.03;;;4.80;;
47958;SDS011;33718;50.910;-1.514;2023-06-14T04:39:24;7.35;;;5.60;;
47958;SDS011;33718;50.910;-1.514;2023-06-14T04:41:27;10.50;;;5.18;;
47958;SDS011;33718;50.910;-1.514;2023-06-14T04:43:34;9.10;;;5.82;;
47958;SDS011;33718;50.910;-1.514;2023-06-14T04:45:42;7.57;;;5.43;;
47958;SDS011;33718;50.910;-1.514;2023-06-14T04:47:46;5.60;;;4.72;;
47958;SDS011;33718;50.910;-1.514;2023-06-14T04:49:49;5.28;;;4.78;;
47958;SDS011;33718;50.910;-1.514;2023-06-14T04:51:55;6.95;;;4.88;;
47958;SDS011;33718;50.910;-1.514;2023-06-14T04:54:18;9.43;;;5.10;;
47958;SDS011;33718;50.910;-1.514;2023-06-14T04:56:24;5.78;;;4.70;;
47958;SDS011;33718;50.910;-1.514;2023-06-14T04:58:29;8.20;;;5.15;;
47958;SDS011;33718;50.910;-1.514;2023-06-14T05:00:31;9.75;;;4.78;;
47958;SDS011;33718;50.910;-1.514;2023-06-14T05:02:33;5.35;;;4.60;;
47958;SDS011;33718;50.910;-1.514;2023-06-14T05:04:38;5.07;;;4.43;;
47958;SDS011;33718;50.910;-1.514;2023-06-14T05:06:45;7.05;;;3.63;;
47958;SDS011;33718;50.910;-1.514;2023-06-14T05:09:05;9.80;;;4.70;;
47958;SDS011;33718;50.910;-1.514;2023-06-14T05:11:07;8.75;;;4.78;;
47958;SDS011;33718;50.910;-1.514;2023-06-14T05:13:08;7.85;;;4.05;;
47958;SDS011;33718;50.910;-1.514;2023-06-14T05:15:15;7.50;;;3.67;;
47958;SDS011;33718;50.910;-1.514;2023-06-14T05:17:20;6.93;;;4.00;;
47958;SDS011;33718;50.910;-1.514;2023-06-14T05:19:25;6.97;;;4.28;;
47958;SDS011;33718;50.910;-1.514;2023-06-14T05:21:45;9.38;;;3.63;;
47958;SDS011;33718;50.910;-1.514;2023-06-14T05:23:50;5.05;;;3.10;;
47958;SDS011;33718;50.910;-1.514;2023-06-14T05:25:55;6.90;;;3.95;;
47958;SDS011;33718;50.910;-1.514;2023-06-14T05:28:00;8.90;;;3.83;;
47958;SDS011;33718;50.910;-1.514;2023-06-14T05:30:02;6.20;;;3.78;;
47958;SDS011;33718;50.910;-1.514;2023-06-14T05:32:05;7.95;;;4.45;;
47958;SDS011;33718;50.910;-1.514;2023-06-14T05:34:07;9.10;;;4.70;;
47958;SDS011;33718;50.910;-1.514;2023-06-14T05:36:08;7.03;;;4.53;;
47958;SDS011;33718;50.910;-1.514;2023-06-14T05:38:10;9.35;;;4.00;;
47958;SDS011;33718;50.910;-1.514;2023-06-14T05:40:14;10.63;;;3.60;;
47958;SDS011;33718;50.910;-1.514;2023-06-14T05:42:18;9.35;;;3.78;;
47958;SDS011;33718;50.910;-1.514;2023-06-14T05:44:20;11.77;;;4.28;;
47958;SDS011;33718;50.910;-1.514;2023-06-14T05:46:24;7.93;;;4.05;;
47958;SDS011;33718;50.910;-1.514;2023-06-14T05:48:30;9.95;;;4.22;;
47958;SDS011;33718;50.910;-1.514;2023-06-14T05:50:33;5.93;;;3.70;;
47958;SDS011;33718;50.910;-1.514;2023-06-14T05:52:38;9.43;;;4.25;;
47958;SDS011;33718;50.910;-1.514;2023-06-14T05:54:58;7.90;;;3.63;;
47958;SDS011;33718;50.910;-1.514;2023-06-14T05:57:19;8.35;;;4.22;;
47958;SDS011;33718;50.910;-1.514;2023-06-14T05:59:24;6.22;;;3.80;;
47958;SDS011;33718;50.910;-1.514;2023-06-14T06:01:25;6.03;;;4.57;;
47958;SDS011;33718;50.910;-1.514;2023-06-14T06:03:30;10.55;;;4.43;;
47958;SDS011;33718;50.910;-1.514;2023-06-14T06:05:32;9.93;;;5.18;;
47958;SDS011;33718;50.910;-1.514;2023-06-14T06:07:36;10.88;;;4.68;;
47958;SDS011;33718;50.910;-1.514;2023-06-14T06:09:42;6.28;;;3.70;;
47958;SDS011;33718;50.910;-1.514;2023-06-14T06:11:44;6.15;;;4.38;;
47958;SDS011;33718;50.910;-1.514;2023-06-14T06:13:57;6.32;;;5.00;;
47958;SDS011;33718;50.910;-1.514;2023-06-14T06:16:17;8.05;;;4.30;;
47958;SDS011;33718;50.910;-1.514;2023-06-14T06:18:38;8.13;;;4.38;;
47958;SDS011;33718;50.910;-1.514;2023-06-14T06:20:44;6.53;;;4.35;;
47958;SDS011;33718;50.910;-1.514;2023-06-14T06:22:52;7.03;;;3.67;;
47958;SDS011;33718;50.910;-1.514;2023-06-14T06:24:58;7.15;;;3.35;;
47958;SDS011;33718;50.910;-1.514;2023-06-14T06:26:59;6.65;;;3.55;;
47958;SDS011;33718;50.910;-1.514;2023-06-14T06:29:02;4.00;;;2.60;;
47958;SDS011;33718;50.910;-1.514;2023-06-14T06:31:06;5.07;;;2.67;;
47958;SDS011;33718;50.910;-1.514;2023-06-14T06:33:11;5.72;;;2.47;;
47958;SDS011;33718;50.910;-1.514;2023-06-14T06:35:16;10.10;;;2.72;;
47958;SDS011;33718;50.910;-1.514;2023-06-14T06:37:19;8.18;;;3.28;;
47958;SDS011;33718;50.910;-1.514;2023-06-14T06:39:21;13.48;;;2.83;;
47958;SDS011;33718;50.910;-1.514;2023-06-14T06:41:24;6.28;;;1.90;;
47958;SDS011;33718;50.910;-1.514;2023-06-14T06:43:26;6.65;;;2.00;;
47958;SDS011;33718;50.910;-1.514;2023-06-14T06:45:29;4.15;;;2.47;;
47958;SDS011;33718;50.910;-1.514;2023-06-14T06:47:36;5.25;;;2.30;;
47958;SDS011;33718;50.910;-1.514;2023-06-14T06:49:38;10.40;;;2.47;;
47958;SDS011;33718;50.910;-1.514;2023-06-14T06:51:43;4.75;;;2.15;;
47958;SDS011;33718;50.910;-1.514;2023-06-14T06:53:52;4.75;;;2.28;;
47958;SDS011;33718;50.910;-1.514;2023-06-14T06:55:54;6.85;;;2.60;;
47958;SDS011;33718;50.910;-1.514;2023-06-14T06:58:02;3.40;;;1.75;;
47958;SDS011;33718;50.910;-1.514;2023-06-14T07:00:09;6.18;;;1.85;;
47958;SDS011;33718;50.910;-1.514;2023-06-14T07:02:11;5.27;;;1.97;;
47958;SDS011;33718;50.910;-1.514;2023-06-14T07:04:29;8.85;;;2.20;;
47958;SDS011;33718;50.910;-1.514;2023-06-14T07:06:55;4.63;;;1.90;;
47958;SDS011;33718;50.910;-1.514;2023-06-14T07:09:02;5.53;;;2.05;;
47958;SDS011;33718;50.910;-1.514;2023-06-14T07:11:08;1.98;;;1.48;;
47958;SDS011;33718;50.910;-1.514;2023-06-14T07:13:11;3.45;;;1.73;;
47958;SDS011;33718;50.910;-1.514;2023-06-14T07:15:21;5.03;;;2.50;;
47958;SDS011;33718;50.910;-1.514;2023-06-14T07:17:44;5.33;;;1.90;;
47958;SDS011;33718;50.910;-1.514;2023-06-14T07:19:50;3.45;;;1.95;;
47958;SDS011;33718;50.910;-1.514;2023-06-14T07:21:57;5.50;;;2.13;;
47958;SDS011;33718;50.910;-1.514;2023-06-14T07:26:22;3.83;;;2.10;;
47958;SDS011;33718;50.910;-1.514;2023-06-14T07:28:25;5.55;;;1.55;;
47958;SDS011;33718;50.910;-1.514;2023-06-14T07:30:28;8.50;;;1.90;;
47958;SDS011;33718;50.910;-1.514;2023-06-14T07:32:36;4.47;;;2.20;;
47958;SDS011;33718;50.910;-1.514;2023-06-14T07:34:43;3.83;;;2.20;;
47958;SDS011;33718;50.910;-1.514;2023-06-14T07:36:47;9.65;;;2.35;;
47958;SDS011;33718;50.910;-1.514;2023-06-14T07:39:08;5.28;;;2.53;;
47958;SDS011;33718;50.910;-1.514;2023-06-14T07:41:12;9.63;;;2.38;;
47958;SDS011;33718;50.910;-1.514;2023-06-14T07:43:16;7.75;;;2.33;;
47958;SDS011;33718;50.910;-1.514;2023-06-14T07:45:18;5.15;;;2.45;;
47958;SDS011;33718;50.910;-1.514;2023-06-14T07:47:23;4.60;;;1.58;;
47958;SDS011;33718;50.910;-1.514;2023-06-14T07:49:25;3.37;;;1.80;;
47958;SDS011;33718;50.910;-1.514;2023-06-14T07:51:33;5.53;;;2.78;;
47958;SDS011;33718;50.910;-1.514;2023-06-14T07:53:53;6.75;;;1.77;;
47958;SDS011;33718;50.910;-1.514;2023-06-14T07:55:58;6.38;;;1.85;;
47958;SDS011;33718;50.910;-1.514;2023-06-14T07:58:00;4.93;;;1.65;;
47958;SDS011;33718;50.910;-1.514;2023-06-14T08:00:05;5.28;;;2.00;;
47958;SDS011;33718;50.910;-1.514;2023-06-14T08:02:28;8.90;;;1.80;;
47958;SDS011;33718;50.910;-1.514;2023-06-14T08:04:31;8.20;;;1.67;;
47958;SDS011;33718;50.910;-1.514;2023-06-14T08:06:35;4.05;;;1.60;;
47958;SDS011;33718;50.910;-1.514;2023-06-14T08:08:40;3.65;;;1.88;;
47958;SDS011;33718;50.910;-1.514;2023-06-14T08:10:45;7.88;;;1.92;;
47958;SDS011;33718;50.910;-1.514;2023-06-14T08:12:46;3.67;;;1.70;;
47958;SDS011;33718;50.910;-1.514;2023-06-14T08:14:49;4.15;;;1.73;;
47958;SDS011;33718;50.910;-1.514;2023-06-14T08:17:11;3.17;;;1.70;;
47958;SDS011;33718;50.910;-1.514;2023-06-14T08:19:15;5.15;;;1.90;;
47958;SDS011;33718;50.910;-1.514;2023-06-14T08:21:20;3.47;;;2.13;;
47958;SDS011;33718;50.910;-1.514;2023-06-14T08:23:25;8.43;;;2.15;;
47958;SDS011;33718;50.910;-1.514;2023-06-14T08:25:30;5.18;;;1.55;;
47958;SDS011;33718;50.910;-1.514;2023-06-14T08:27:32;3.05;;;1.85;;
47958;SDS011;33718;50.910;-1.514;2023-06-14T08:29:36;7.55;;;2.33;;
47958;SDS011;33718;50.910;-1.514;2023-06-14T08:31:40;6.10;;;1.95;;
47958;SDS011;33718;50.910;-1.514;2023-06-14T08:33:44;2.25;;;1.67;;
47958;SDS011;33718;50.910;-1.514;2023-06-14T08:37:49;5.57;;;1.60;;
47958;SDS011;33718;50.910;-1.514;2023-06-14T08:39:50;7.75;;;2.03;;
47958;SDS011;33718;50.910;-1.514;2023-06-14T08:41:52;2.90;;;1.63;;
47958;SDS011;33718;50.910;-1.514;2023-06-14T08:43:54;2.60;;;1.60;;
47958;SDS011;33718;50.910;-1.514;2023-06-14T08:45:57;4.60;;;2.17;;
47958;SDS011;33718;50.910;-1.514;2023-06-14T08:48:03;2.85;;;1.38;;
47958;SDS011;33718;50.910;-1.514;2023-06-14T08:50:05;6.28;;;2.00;;
47958;SDS011;33718;50.910;-1.514;2023-06-14T08:52:37;6.20;;;1.73;;
47958;SDS011;33718;50.910;-1.514;2023-06-14T08:54:46;4.97;;;1.70;;
47958;SDS011;33718;50.910;-1.514;2023-06-14T08:56:53;3.60;;;2.08;;
47958;SDS011;33718;50.910;-1.514;2023-06-14T08:58:58;1.92;;;1.67;;
47958;SDS011;33718;50.910;-1.514;2023-06-14T09:01:23;2.70;;;1.30;;
47958;SDS011;33718;50.910;-1.514;2023-06-14T09:03:28;5.65;;;1.73;;
47958;SDS011;33718;50.910;-1.514;2023-06-14T09:05:32;4.70;;;1.80;;
47958;SDS011;33718;50.910;-1.514;2023-06-14T09:07:40;6.47;;;1.63;;
47958;SDS011;33718;50.910;-1.514;2023-06-14T09:09:46;5.20;;;1.80;;
47958;SDS011;33718;50.910;-1.514;2023-06-14T09:12:07;5.15;;;2.05;;
47958;SDS011;33718;50.910;-1.514;2023-06-14T09:14:11;5.22;;;2.38;;
47958;SDS011;33718;50.910;-1.514;2023-06-14T09:16:18;5.70;;;1.95;;
47958;SDS011;33718;50.910;-1.514;2023-06-14T09:20:53;5.35;;;1.95;;
47958;SDS011;33718;50.910;-1.514;2023-06-14T09:23:06;4.82;;;1.90;;
47958;SDS011;33718;50.910;-1.514;2023-06-14T09:25:47;5.78;;;2.55;;
47958;SDS011;33718;50.910;-1.514;2023-06-14T09:28:02;8.55;;;2.17;;
47958;SDS011;33718;50.910;-1.514;2023-06-14T09:30:15;6.55;;;2.50;;
47958;SDS011;33718;50.910;-1.514;2023-06-14T09:32:18;6.00;;;2.63;;
47958;SDS011;33718;50.910;-1.514;2023-06-14T09:34:49;4.38;;;2.38;;
47958;SDS011;33718;50.910;-1.514;2023-06-14T09:37:02;7.18;;;2.53;;
47958;SDS011;33718;50.910;-1.514;2023-06-14T09:39:16;2.78;;;1.90;;
47958;SDS011;33718;50.910;-1.514;2023-06-14T09:41:35;7.65;;;2.03;;
47958;SDS011;33718;50.910;-1.514;2023-06-14T09:43:46;7.32;;;2.88;;
47958;SDS011;33718;50.910;-1.514;2023-06-14T09:45:58;5.38;;;2.38;;
47958;SDS011;33718;50.910;-1.514;2023-06-14T09:48:11;5.18;;;2.15;;
47958;SDS011;33718;50.910;-1.514;2023-06-14T09:50:50;7.35;;;2.53;;
47958;SDS011;33718;50.910;-1.514;2023-06-14T09:53:10;3.55;;;2.38;;
47958;SDS011;33718;50.910;-1.514;2023-06-14T09:55:22;6.15;;;2.40;;
47958;SDS011;33718;50.910;-1.514;2023-06-14T09:57:25;5.97;;;2.25;;
47958;SDS011;33718;50.910;-1.514;2023-06-14T09:59:33;5.57;;;2.70;;
47958;SDS011;33718;50.910;-1.514;2023-06-14T10:01:43;4.57;;;2.40;;
47958;SDS011;33718;50.910;-1.514;2023-06-14T10:04:06;6.13;;;2.80;;
47958;SDS011;33718;50.910;-1.514;2023-06-14T10:06:16;7.68;;;3.63;;
47958;SDS011;33718;50.910;-1.514;2023-06-14T10:08:37;5.75;;;3.13;;
47958;SDS011;33718;50.910;-1.514;2023-06-14T10:10:39;11.00;;;3.65;;
47958;SDS011;33718;50.910;-1.514;2023-06-14T10:12:43;4.95;;;3.58;;
47958;SDS011;33718;50.910;-1.514;2023-06-14T10:14:49;6.22;;;3.47;;
47958;SDS011;33718;50.910;-1.514;2023-06-14T10:17:03;5.15;;;3.55;;
47958;SDS011;33718;50.910;-1.514;2023-06-14T10:19:19;8.35;;;3.83;;
47958;SDS011;33718;50.910;-1.514;2023-06-14T10:24:05;8.50;;;3.40;;
47958;SDS011;33718;50.910;-1.514;2023-06-14T10:26:18;9.25;;;4.15;;
47958;SDS011;33718;50.910;-1.514;2023-06-14T10:28:26;7.07;;;3.47;;
47958;SDS011;33718;50.910;-1.514;2023-06-14T10:30:28;8.57;;;5.13;;
47958;SDS011;33718;50.910;-1.514;2023-06-14T10:33:04;5.15;;;4.18;;
47958;SDS011;33718;50.910;-1.514;2023-06-14T10:35:07;12.43;;;4.55;;
47958;SDS011;33718;50.910;-1.514;2023-06-14T10:37:13;7.97;;;4.15;;
47958;SDS011;33718;50.910;-1.514;2023-06-14T10:39:21;7.35;;;4.53;;
47958;SDS011;33718;50.910;-1.514;2023-06-14T10:41:26;7.50;;;4.10;;
47958;SDS011;33718;50.910;-1.514;2023-06-14T10:43:28;7.95;;;5.28;;
47958;SDS011;33718;50.910;-1.514;2023-06-14T10:45:30;7.53;;;3.63;;
47958;SDS011;33718;50.910;-1.514;2023-06-14T10:47:38;11.77;;;3.95;;
47958;SDS011;33718;50.910;-1.514;2023-06-14T10:49:44;9.15;;;3.88;;
47958;SDS011;33718;50.910;-1.514;2023-06-14T10:51:50;5.53;;;3.40;;
47958;SDS011;33718;50.910;-1.514;2023-06-14T10:53:59;6.20;;;3.57;;
47958;SDS011;33718;50.910;-1.514;2023-06-14T10:56:05;8.27;;;3.67;;
47958;SDS011;33718;50.910;-1.514;2023-06-14T10:58:11;6.20;;;3.45;;
47958;SDS011;33718;50.910;-1.514;2023-06-14T11:00:22;7.43;;;3.22;;
47958;SDS011;33718;50.910;-1.514;2023-06-14T11:02:49;8.82;;;3.40;;
47958;SDS011;33718;50.910;-1.514;2023-06-14T11:04:55;6.63;;;2.83;;
47958;SDS011;33718;50.910;-1.514;2023-06-14T11:07:09;7.95;;;3.40;;
47958;SDS011;33718;50.910;-1.514;2023-06-14T11:11:38;6.63;;;3.05;;
47958;SDS011;33718;50.910;-1.514;2023-06-14T11:13:46;6.30;;;3.15;;
47958;SDS011;33718;50.910;-1.514;2023-06-14T11:15:48;10.93;;;3.13;;
47958;SDS011;33718;50.910;-1.514;2023-06-14T11:17:50;8.15;;;3.50;;
47958;SDS011;33718;50.910;-1.514;2023-06-14T11:20:07;4.97;;;3.20;;
47958;SDS011;33718;50.910;-1.514;2023-06-14T11:22:08;8.38;;;2.72;;
47958;SDS011;33718;50.910;-1.514;2023-06-14T11:24:10;5.53;;;3.58;;
47958;SDS011;33718;50.910;-1.514;2023-06-14T11:26:12;6.55;;;2.90;;
47958;SDS011;33718;50.910;-1.514;2023-06-14T11:28:16;6.95;;;2.90;;
47958;SDS011;33718;50.910;-1.514;2023-06-14T11:30:18;10.52;;;2.92;;
47958;SDS011;33718;50.910;-1.514;2023-06-14T11:32:23;4.38;;;3.00;;
47958;SDS011;33718;50.910;-1.514;2023-06-14T11:34:45;6.72;;;3.60;;
47958;SDS011;33718;50.910;-1.514;2023-06-14T11:37:06;5.57;;;3.10;;
47958;SDS011;33718;50.910;-1.514;2023-06-14T11:39:08;10.45;;;3.20;;
47958;SDS011;33718;50.910;-1.514;2023-06-14T11:41:13;7.68;;;3.33;;
47958;SDS011;33718;50.910;-1.514;2023-06-14T11:43:17;5.32;;;2.95;;
47958;SDS011;33718;50.910;-1.514;2023-06-14T11:45:19;4.93;;;3.30;;
47958;SDS011;33718;50.910;-1.514;2023-06-14T11:47:40;4.28;;;3.03;;
47958;SDS011;33718;50.910;-1.514;2023-06-14T11:49:41;9.65;;;3.25;;
47958;SDS011;33718;50.910;-1.514;2023-06-14T11:51:43;10.00;;;3.40;;
47958;SDS011;33718;50.910;-1.514;2023-06-14T11:53:47;8.45;;;3.25;;
47958;SDS011;33718;50.910;-1.514;2023-06-14T11:55:49;8.23;;;3.37;;
47958;SDS011;33718;50.910;-1.514;2023-06-14T11:57:53;10.80;;;3.10;;
47958;SDS011;33718;50.910;-1.514;2023-06-14T11:59:57;7.22;;;2.80;;
47958;SDS011;33718;50.910;-1.514;2023-06-14T12:02:02;7.28;;;3.47;;
47958;SDS011;33718;50.910;-1.514;2023-06-14T12:04:05;9.70;;;3.90;;
47958;SDS011;33718;50.910;-1.514;2023-06-14T12:06:10;10.13;;;3.00;;
47958;SDS011;33718;50.910;-1.514;2023-06-14T12:08:12;7.68;;;3.67;;
47958;SDS011;33718;50.910;-1.514;2023-06-14T12:10:40;7.07;;;3.70;;
47958;SDS011;33718;50.910;-1.514;2023-06-14T12:12:48;8.15;;;3.30;;
47958;SDS011;33718;50.910;-1.514;2023-06-14T12:14:53;11.77;;;3.72;;
47958;SDS011;33718;50.910;-1.514;2023-06-14T12:17:03;11.02;;;2.78;;
47958;SDS011;33718;50.910;-1.514;2023-06-14T12:19:14;8.15;;;3.70;;
47958;SDS011;33718;50.910;-1.514;2023-06-14T12:21:16;8.85;;;3.60;;
47958;SDS011;33718;50.910;-1.514;2023-06-14T12:23:20;6.70;;;2.97;;
47958;SDS011;33718;50.910;-1.514;2023-06-14T12:25:28;7.45;;;3.28;;
47958;SDS011;33718;50.910;-1.514;2023-06-14T12:27:35;6.40;;;3.13;;
47958;SDS011;33718;50.910;-1.514;2023-06-14T12:29:37;7.57;;;3.65;;
47958;SDS011;33718;50.910;-1.514;2023-06-14T12:31:41;5.05;;;3.42;;
47958;SDS011;33718;50.910;-1.514;2023-06-14T12:33:46;7.57;;;3.75;;
47958;SDS011;33718;50.910;-1.514;2023-06-14T12:35:54;4.63;;;3.13;;
47958;SDS011;33718;50.910;-1.514;2023-06-14T12:38:16;9.02;;;3.42;;
47958;SDS011;33718;50.910;-1.514;2023-06-14T12:40:22;6.15;;;3.78;;
47958;SDS011;33718;50.910;-1.514;2023-06-14T12:42:23;12.02;;;3.75;;
47958;SDS011;33718;50.910;-1.514;2023-06-14T12:44:29;5.45;;;4.00;;
47958;SDS011;33718;50.910;-1.514;2023-06-14T12:46:33;5.60;;;3.30;;
47958;SDS011;33718;50.910;-1.514;2023-06-14T12:48:36;7.53;;;4.20;;
47958;SDS011;33718;50.910;-1.514;2023-06-14T12:50:38;8.65;;;3.40;;
47958;SDS011;33718;50.910;-1.514;2023-06-14T12:52:39;10.25;;;3.53;;
47958;SDS011;33718;50.910;-1.514;2023-06-14T12:54:43;9.85;;;3.40;;
47958;SDS011;33718;50.910;-1.514;2023-06-14T12:56:48;3.92;;;2.90;;
47958;SDS011;33718;50.910;-1.514;2023-06-14T12:59:08;4.88;;;3.05;;
47958;SDS011;33718;50.910;-1.514;2023-06-14T13:01:12;8.20;;;2.85;;
47958;SDS011;33718;50.910;-1.514;2023-06-14T13:03:14;8.20;;;3.65;;
47958;SDS011;33718;50.910;-1.514;2023-06-14T13:05:16;8.95;;;4.03;;
47958;SDS011;33718;50.910;-1.514;2023-06-14T13:07:21;9.45;;;3.40;;